Observations for NEW YORK JF KENNEDY, NY (JFK)

KJFK 211751Z 30005KT 10SM FEW200 BKN250 09/M02 A3016 RMK AO2 SLP212 T00941017 10100 20006 58012 
KJFK 211651Z 31006KT 10SM FEW200 BKN250 09/M02 A3018 RMK AO2 SLP220 T00891017   
KJFK 211551Z 34008KT 10SM BKN250 09/M02 A3019 RMK AO2 SLP224 T00891017  
KJFK 211451Z 32009KT 10SM BKN250 08/M01 A3019 RMK AO2 SLP224 T00831006 51014
KJFK 211351Z 25006KT 10SM BKN250 04/00 A3018 RMK AO2 SLP219 T00440000   
KJFK 211251Z 27007KT 10SM SCT250 04/M01 A3017 RMK AO2 SLP216 T00391006  
KJFK 211151Z 25007KT 10SM FEW250 01/M02 A3015 RMK AO2 SLP210 T00061022 10039 21011 53021
KJFK 211051Z 25009KT 10SM FEW250 01/M02 A3012 RMK AO2 SLP200 T00061017  
KJFK 210951Z 26007KT 10SM CLR 03/M02 A3010 RMK AO2 SLP194 T00281017 
KJFK 210851Z 24007KT 10SM FEW250 00/M02 A3009 RMK AO2 SLP188 T00001022 51008
KJFK 210751Z 26006KT 10SM FEW250 02/M02 A3009 RMK AO2 SLP188 T00171017  
KJFK 210651Z 24006KT 10SM FEW250 00/M02 A3008 RMK AO2 SLP184 T00001022  
KJFK 210551Z 24005KT 10SM FEW250 01/M02 A3006 RMK AO2 SLP180 T00061022 10083 20000 51009
KJFK 210451Z 25009KT 10SM FEW250 02/M01 A3006 RMK AO2 SLP179 T00221011 401221017
KJFK 210351Z 24010KT 10SM FEW250 02/M02 A3005 RMK AO2 SLP175 T00221017  
KJFK 210251Z 25008KT 10SM FEW250 04/M02 A3004 RMK AO2 SLP171 T00441017 51016
KJFK 210151Z 25008KT 10SM SCT250 07/M02 A3003 RMK AO2 SLP168 T00671017  
KJFK 210051Z 27009KT 10SM SCT250 08/M02 A3002 RMK AO2 SLP164 T00781017  
KJFK 202351Z 27012KT 10SM FEW220 SCT250 08/M02 A2999 RMK AO2 SLP155 T00831017 10122 20078 53029 
KJFK 202251Z 27013KT 10SM FEW200 BKN250 08/M02 A2996 RMK AO2 SLP144 T00831022   
KJFK 202151Z 28013G23KT 10SM FEW210 BKN250 09/M03 A2994 RMK AO2 PK WND 27027/2133 SLP137 T00891028  
KJFK 202051Z 29018G23KT 10SM FEW210 BKN250 11/M03 A2990 RMK AO2 PK WND 27027/2003 SLP126 T01061033 53017
KJFK 201951Z 27018G27KT 10SM FEW190 BKN250 11/M03 A2988 RMK AO2 PK WND 27027/1943 SLP117 T01111033  
KJFK 201851Z 25015KT 10SM BKN250 11/M03 A2986 RMK AO2 SLP110 T01111028  
KJFK 201751Z 26012KT 10SM BKN250 11/M03 A2985 RMK AO2 SLP109 T01111028 10111 20017 58024